sensor_id;sensor_type;location;lat;lon;timestamp;pressure;altitude;pressure_sealevel;temperature;humidity
9523;BME280;63165;43.016;25.784;2023-07-29T00:00:13;99806.19;;;17.29;81.58
9523;BME280;63165;43.016;25.784;2023-07-29T00:02:42;99808.28;;;17.22;82.52
9523;BME280;63165;43.016;25.784;2023-07-29T00:05:09;99804.84;;;17.20;82.45
9523;BME280;63165;43.016;25.784;2023-07-29T00:07:37;99803.16;;;17.19;81.90
9523;BME280;63165;43.016;25.784;2023-07-29T00:10:05;99804.06;;;17.18;80.90
9523;BME280;63165;43.016;25.784;2023-07-29T00:12:32;99801.34;;;17.20;82.52
9523;BME280;63165;43.016;25.784;2023-07-29T00:14:59;99800.78;;;17.13;82.65
9523;BME280;63165;43.016;25.784;2023-07-29T00:17:26;99795.78;;;17.07;83.29
9523;BME280;63165;43.016;25.784;2023-07-29T00:19:55;99797.78;;;17.02;83.73
9523;BME280;63165;43.016;25.784;2023-07-29T00:22:22;99795.25;;;17.00;83.69
9523;BME280;63165;43.016;25.784;2023-07-29T00:24:52;99802.28;;;17.00;84.51
9523;BME280;63165;43.016;25.784;2023-07-29T00:27:20;99797.88;;;17.00;83.91
9523;BME280;63165;43.016;25.784;2023-07-29T00:29:47;99796.09;;;17.01;83.24
9523;BME280;63165;43.016;25.784;2023-07-29T00:32:15;99803.53;;;16.93;83.47
9523;BME280;63165;43.016;25.784;2023-07-29T00:34:42;99790.22;;;16.94;83.33
9523;BME280;63165;43.016;25.784;2023-07-29T00:37:11;99787.75;;;16.91;83.76
9523;BME280;63165;43.016;25.784;2023-07-29T00:39:38;99810.81;;;16.87;83.56
9523;BME280;63165;43.016;25.784;2023-07-29T00:42:05;99791.22;;;16.73;84.25
9523;BME280;63165;43.016;25.784;2023-07-29T00:44:33;99777.78;;;16.77;84.66
9523;BME280;63165;43.016;25.784;2023-07-29T00:47:02;99767.94;;;16.81;83.48
9523;BME280;63165;43.016;25.784;2023-07-29T00:49:29;99767.00;;;16.82;83.56
9523;BME280;63165;43.016;25.784;2023-07-29T00:51:57;99775.91;;;16.79;83.31
9523;BME280;63165;43.016;25.784;2023-07-29T00:54:26;99779.50;;;16.78;83.57
9523;BME280;63165;43.016;25.784;2023-07-29T00:56:53;99776.09;;;16.76;83.10
9523;BME280;63165;43.016;25.784;2023-07-29T00:59:20;99760.22;;;16.57;83.49
9523;BME280;63165;43.016;25.784;2023-07-29T01:01:48;99765.28;;;16.81;84.14
9523;BME280;63165;43.016;25.784;2023-07-29T01:04:15;99752.38;;;16.56;83.63
9523;BME280;63165;43.016;25.784;2023-07-29T01:06:56;99763.00;;;16.73;82.87
9523;BME280;63165;43.016;25.784;2023-07-29T01:09:31;99785.63;;;16.79;83.14
9523;BME280;63165;43.016;25.784;2023-07-29T01:12:08;99776.78;;;16.80;82.52
9523;BME280;63165;43.016;25.784;2023-07-29T01:14:41;99769.28;;;16.71;82.74
9523;BME280;63165;43.016;25.784;2023-07-29T01:17:13;99775.78;;;16.63;84.08
9523;BME280;63165;43.016;25.784;2023-07-29T01:19:50;99783.13;;;16.57;83.77
9523;BME280;63165;43.016;25.784;2023-07-29T01:22:23;99788.56;;;16.54;84.26
9523;BME280;63165;43.016;25.784;2023-07-29T01:24:52;99787.84;;;16.50;84.59
9523;BME280;63165;43.016;25.784;2023-07-29T01:27:19;99792.41;;;16.46;85.08
9523;BME280;63165;43.016;25.784;2023-07-29T01:29:46;99790.91;;;16.41;84.89
9523;BME280;63165;43.016;25.784;2023-07-29T01:32:19;99787.66;;;16.34;84.94
9523;BME280;63165;43.016;25.784;2023-07-29T01:34:52;99793.94;;;16.32;85.12
9523;BME280;63165;43.016;25.784;2023-07-29T01:37:25;99790.53;;;16.29;85.20
9523;BME280;63165;43.016;25.784;2023-07-29T01:39:56;99802.06;;;16.27;85.49
9523;BME280;63165;43.016;25.784;2023-07-29T01:42:25;99799.81;;;16.18;85.11
9523;BME280;63165;43.016;25.784;2023-07-29T01:44:52;99798.97;;;16.17;85.52
9523;BME280;63165;43.016;25.784;2023-07-29T01:47:20;99806.16;;;16.14;85.96
9523;BME280;63165;43.016;25.784;2023-07-29T01:49:48;99784.72;;;16.01;86.21
9523;BME280;63165;43.016;25.784;2023-07-29T01:52:15;99807.28;;;16.08;86.02
9523;BME280;63165;43.016;25.784;2023-07-29T01:54:42;99807.28;;;16.08;86.07
9523;BME280;63165;43.016;25.784;2023-07-29T01:57:11;99809.06;;;16.07;86.13
9523;BME280;63165;43.016;25.784;2023-07-29T01:59:38;99818.91;;;16.04;86.15
9523;BME280;63165;43.016;25.784;2023-07-29T02:02:06;99812.09;;;15.98;86.15
9523;BME280;63165;43.016;25.784;2023-07-29T02:04:33;99814.75;;;15.98;86.27
9523;BME280;63165;43.016;25.784;2023-07-29T02:07:00;99832.38;;;15.98;85.92
9523;BME280;63165;43.016;25.784;2023-07-29T02:09:27;99839.56;;;15.94;85.92
9523;BME280;63165;43.016;25.784;2023-07-29T02:11:54;99819.56;;;15.88;86.50
9523;BME280;63165;43.016;25.784;2023-07-29T02:14:24;99825.09;;;15.82;87.15
9523;BME280;63165;43.016;25.784;2023-07-29T02:16:51;99830.63;;;15.76;86.82
9523;BME280;63165;43.016;25.784;2023-07-29T02:19:18;99816.31;;;15.82;86.98
9523;BME280;63165;43.016;25.784;2023-07-29T02:21:45;99818.91;;;15.83;86.17
9523;BME280;63165;43.016;25.784;2023-07-29T02:24:13;99812.81;;;15.81;86.73
9523;BME280;63165;43.016;25.784;2023-07-29T02:26:40;99819.22;;;15.76;87.14
9523;BME280;63165;43.016;25.784;2023-07-29T02:29:08;99816.56;;;15.76;86.53
9523;BME280;63165;43.016;25.784;2023-07-29T02:31:36;99812.22;;;15.75;87.01
9523;BME280;63165;43.016;25.784;2023-07-29T02:34:04;99819.28;;;15.74;87.22
9523;BME280;63165;43.016;25.784;2023-07-29T02:36:31;99821.16;;;15.70;86.82
9523;BME280;63165;43.016;25.784;2023-07-29T02:38:58;99818.84;;;15.63;87.30
9523;BME280;63165;43.016;25.784;2023-07-29T02:41:25;99828.38;;;15.65;87.60
9523;BME280;63165;43.016;25.784;2023-07-29T02:43:52;99824.03;;;15.64;87.46
9523;BME280;63165;43.016;25.784;2023-07-29T02:46:19;99845.19;;;15.63;87.21
9523;BME280;63165;43.016;25.784;2023-07-29T02:48:50;99825.69;;;15.67;87.40
9523;BME280;63165;43.016;25.784;2023-07-29T02:51:17;99828.47;;;15.64;87.76
9523;BME280;63165;43.016;25.784;2023-07-29T02:53:44;99836.28;;;15.65;87.11
9523;BME280;63165;43.016;25.784;2023-07-29T02:56:11;99831.97;;;15.64;86.96
9523;BME280;63165;43.016;25.784;2023-07-29T02:58:39;99838.03;;;15.66;87.09
9523;BME280;63165;43.016;25.784;2023-07-29T03:01:06;99839.19;;;15.59;86.23
9523;BME280;63165;43.016;25.784;2023-07-29T03:03:33;99844.53;;;15.58;86.56
9523;BME280;63165;43.016;25.784;2023-07-29T03:06:04;99842.16;;;15.51;86.64
9523;BME280;63165;43.016;25.784;2023-07-29T03:08:32;99837.97;;;15.46;87.46
9523;BME280;63165;43.016;25.784;2023-07-29T03:11:05;99830.50;;;15.35;88.09
9523;BME280;63165;43.016;25.784;2023-07-29T03:13:32;99839.09;;;15.40;88.12
9523;BME280;63165;43.016;25.784;2023-07-29T03:16:05;99845.09;;;15.44;87.58
9523;BME280;63165;43.016;25.784;2023-07-29T03:18:32;99846.72;;;15.46;87.43
9523;BME280;63165;43.016;25.784;2023-07-29T03:21:00;99841.50;;;15.45;87.66
9523;BME280;63165;43.016;25.784;2023-07-29T03:23:29;99841.59;;;15.43;88.41
9523;BME280;63165;43.016;25.784;2023-07-29T03:25:57;99839.94;;;15.41;88.65
9523;BME280;63165;43.016;25.784;2023-07-29T03:28:26;99856.00;;;15.34;88.72
9523;BME280;63165;43.016;25.784;2023-07-29T03:30:54;99857.53;;;15.40;88.63
9523;BME280;63165;43.016;25.784;2023-07-29T03:33:21;99847.78;;;15.42;88.76
9523;BME280;63165;43.016;25.784;2023-07-29T03:35:48;99839.09;;;15.40;88.48
9523;BME280;63165;43.016;25.784;2023-07-29T03:38:16;99842.41;;;15.45;88.47
9523;BME280;63165;43.016;25.784;2023-07-29T03:40:44;99847.63;;;15.47;87.57
9523;BME280;63165;43.016;25.784;2023-07-29T03:43:11;99845.72;;;15.50;88.29
9523;BME280;63165;43.016;25.784;2023-07-29T03:45:39;99845.63;;;15.52;87.90
9523;BME280;63165;43.016;25.784;2023-07-29T03:48:07;99838.41;;;15.57;88.15
9523;BME280;63165;43.016;25.784;2023-07-29T03:50:35;99838.28;;;15.60;88.57
9523;BME280;63165;43.016;25.784;2023-07-29T03:53:03;99841.66;;;15.64;88.83
9523;BME280;63165;43.016;25.784;2023-07-29T03:55:30;99842.44;;;15.66;88.92
9523;BME280;63165;43.016;25.784;2023-07-29T03:58:00;99853.75;;;15.69;88.51
9523;BME280;63165;43.016;25.784;2023-07-29T04:00:27;99852.72;;;15.74;88.38
9523;BME280;63165;43.016;25.784;2023-07-29T04:02:54;99849.88;;;15.78;88.74
9523;BME280;63165;43.016;25.784;2023-07-29T04:05:22;99851.53;;;15.81;88.73
9523;BME280;63165;43.016;25.784;2023-07-29T04:07:49;99844.47;;;15.81;89.72
9523;BME280;63165;43.016;25.784;2023-07-29T04:10:16;99868.91;;;15.86;90.20
9523;BME280;63165;43.016;25.784;2023-07-29T04:12:43;99857.81;;;15.99;91.40
9523;BME280;63165;43.016;25.784;2023-07-29T04:15:12;99844.19;;;16.09;91.29
9523;BME280;63165;43.016;25.784;2023-07-29T04:17:39;99849.13;;;16.17;91.79
9523;BME280;63165;43.016;25.784;2023-07-29T04:20:07;99844.28;;;16.27;90.81
9523;BME280;63165;43.016;25.784;2023-07-29T04:22:34;99841.25;;;16.36;90.76
9523;BME280;63165;43.016;25.784;2023-07-29T04:25:02;99854.13;;;16.44;91.07
9523;BME280;63165;43.016;25.784;2023-07-29T04:27:30;99852.00;;;16.52;91.70
9523;BME280;63165;43.016;25.784;2023-07-29T04:29:57;99850.81;;;16.59;90.66
9523;BME280;63165;43.016;25.784;2023-07-29T04:32:26;99855.75;;;16.67;91.80
9523;BME280;63165;43.016;25.784;2023-07-29T04:34:53;99853.63;;;16.75;92.09
9523;BME280;63165;43.016;25.784;2023-07-29T04:37:20;99843.88;;;16.76;91.08
9523;BME280;63165;43.016;25.784;2023-07-29T04:39:47;99860.00;;;16.90;90.92
9523;BME280;63165;43.016;25.784;2023-07-29T04:42:14;99875.50;;;16.98;91.41
9523;BME280;63165;43.016;25.784;2023-07-29T04:44:41;99857.53;;;17.06;90.94
9523;BME280;63165;43.016;25.784;2023-07-29T04:47:09;99865.75;;;17.19;90.73
9523;BME280;63165;43.016;25.784;2023-07-29T04:49:38;99846.59;;;17.14;90.69
9523;BME280;63165;43.016;25.784;2023-07-29T04:52:06;99874.22;;;17.44;90.04
9523;BME280;63165;43.016;25.784;2023-07-29T04:54:33;99870.16;;;17.56;90.44
9523;BME280;63165;43.016;25.784;2023-07-29T04:57:00;99865.97;;;17.70;90.35
9523;BME280;63165;43.016;25.784;2023-07-29T04:59:27;99867.91;;;17.83;90.73
9523;BME280;63165;43.016;25.784;2023-07-29T05:01:54;99859.16;;;18.00;90.04
9523;BME280;63165;43.016;25.784;2023-07-29T05:04:22;99856.91;;;18.10;87.84
9523;BME280;63165;43.016;25.784;2023-07-29T05:06:50;99847.00;;;18.14;83.46
9523;BME280;63165;43.016;25.784;2023-07-29T05:09:18;99863.69;;;18.33;79.64
9523;BME280;63165;43.016;25.784;2023-07-29T05:11:47;99847.38;;;18.41;80.11
9523;BME280;63165;43.016;25.784;2023-07-29T05:14:17;99864.34;;;18.54;78.65
9523;BME280;63165;43.016;25.784;2023-07-29T05:16:44;99867.00;;;18.54;78.15
9523;BME280;63165;43.016;25.784;2023-07-29T05:19:11;99884.22;;;18.96;77.14
9523;BME280;63165;43.016;25.784;2023-07-29T05:21:39;99879.09;;;19.09;75.52
9523;BME280;63165;43.016;25.784;2023-07-29T05:24:07;99881.09;;;19.22;73.22
9523;BME280;63165;43.016;25.784;2023-07-29T05:26:35;99884.78;;;19.35;74.70
9523;BME280;63165;43.016;25.784;2023-07-29T05:29:02;99892.81;;;19.49;72.48
9523;BME280;63165;43.016;25.784;2023-07-29T05:31:29;99886.81;;;19.62;71.49
9523;BME280;63165;43.016;25.784;2023-07-29T05:33:56;99899.41;;;19.74;71.74
9523;BME280;63165;43.016;25.784;2023-07-29T05:36:23;99876.91;;;19.81;71.95
9523;BME280;63165;43.016;25.784;2023-07-29T05:38:52;99894.03;;;20.06;70.05
9523;BME280;63165;43.016;25.784;2023-07-29T05:41:20;99887.06;;;20.19;69.13
9523;BME280;63165;43.016;25.784;2023-07-29T05:43:48;99890.69;;;20.32;68.29
9523;BME280;63165;43.016;25.784;2023-07-29T05:46:15;99896.03;;;20.47;66.59
9523;BME280;63165;43.016;25.784;2023-07-29T05:48:42;99879.94;;;20.50;66.66
9523;BME280;63165;43.016;25.784;2023-07-29T05:51:09;99898.00;;;20.73;68.51
9523;BME280;63165;43.016;25.784;2023-07-29T05:53:36;99894.97;;;20.94;67.55
9523;BME280;63165;43.016;25.784;2023-07-29T05:56:04;99892.97;;;21.12;65.60
9523;BME280;63165;43.016;25.784;2023-07-29T05:58:32;99894.56;;;21.29;64.85
9523;BME280;63165;43.016;25.784;2023-07-29T06:00:59;99899.69;;;21.46;64.60
9523;BME280;63165;43.016;25.784;2023-07-29T06:03:27;99880.34;;;21.57;62.16
9523;BME280;63165;43.016;25.784;2023-07-29T06:05:54;99894.81;;;21.80;60.86
9523;BME280;63165;43.016;25.784;2023-07-29T06:08:21;99899.91;;;21.98;60.54
9523;BME280;63165;43.016;25.784;2023-07-29T06:10:48;99885.72;;;22.10;61.45
9523;BME280;63165;43.016;25.784;2023-07-29T06:13:16;99884.09;;;22.35;59.81
9523;BME280;63165;43.016;25.784;2023-07-29T06:15:44;99874.09;;;22.51;58.95
9523;BME280;63165;43.016;25.784;2023-07-29T06:18:11;99873.25;;;22.63;58.59
9523;BME280;63165;43.016;25.784;2023-07-29T06:20:39;99903.53;;;22.88;57.15
9523;BME280;63165;43.016;25.784;2023-07-29T06:23:06;99880.03;;;23.06;56.45
9523;BME280;63165;43.016;25.784;2023-07-29T06:25:33;99878.97;;;23.21;56.05
9523;BME280;63165;43.016;25.784;2023-07-29T06:28:00;99897.63;;;23.34;55.19
9523;BME280;63165;43.016;25.784;2023-07-29T06:30:28;99868.75;;;23.39;55.07
9523;BME280;63165;43.016;25.784;2023-07-29T06:32:56;99858.88;;;23.53;56.19
9523;BME280;63165;43.016;25.784;2023-07-29T06:35:23;99865.53;;;23.71;55.50
9523;BME280;63165;43.016;25.784;2023-07-29T06:37:50;99830.63;;;23.61;54.58
9523;BME280;63165;43.016;25.784;2023-07-29T06:40:17;99861.22;;;24.06;53.39
9523;BME280;63165;43.016;25.784;2023-07-29T06:42:44;99858.09;;;24.23;53.76
9523;BME280;63165;43.016;25.784;2023-07-29T06:45:11;99859.22;;;24.43;53.63
9523;BME280;63165;43.016;25.784;2023-07-29T06:47:39;99855.28;;;24.60;52.55
9523;BME280;63165;43.016;25.784;2023-07-29T06:50:08;99842.63;;;24.73;52.49
9523;BME280;63165;43.016;25.784;2023-07-29T06:52:35;99836.16;;;24.87;51.53
9523;BME280;63165;43.016;25.784;2023-07-29T06:55:04;99846.63;;;25.13;50.68
9523;BME280;63165;43.016;25.784;2023-07-29T06:57:31;99849.31;;;25.24;50.82
9523;BME280;63165;43.016;25.784;2023-07-29T06:59:59;99840.28;;;25.36;50.45
9523;BME280;63165;43.016;25.784;2023-07-29T07:02:26;99843.53;;;25.51;50.65
9523;BME280;63165;43.016;25.784;2023-07-29T07:04:53;99839.16;;;25.71;50.70
9523;BME280;63165;43.016;25.784;2023-07-29T07:07:22;99836.56;;;25.92;51.87
9523;BME280;63165;43.016;25.784;2023-07-29T07:09:49;99832.72;;;26.06;49.89
9523;BME280;63165;43.016;25.784;2023-07-29T07:12:17;99835.78;;;26.23;49.52
9523;BME280;63165;43.016;25.784;2023-07-29T07:14:45;99831.06;;;26.36;48.78
9523;BME280;63165;43.016;25.784;2023-07-29T07:17:12;99835.81;;;26.53;48.46
9523;BME280;63165;43.016;25.784;2023-07-29T07:19:39;99845.22;;;26.69;48.54
9523;BME280;63165;43.016;25.784;2023-07-29T07:22:06;99815.06;;;26.77;47.71
9523;BME280;63165;43.016;25.784;2023-07-29T07:24:35;99830.25;;;27.07;46.77
9523;BME280;63165;43.016;25.784;2023-07-29T07:27:02;99834.69;;;27.18;45.63
9523;BME280;63165;43.016;25.784;2023-07-29T07:29:30;99830.06;;;27.29;46.32
9523;BME280;63165;43.016;25.784;2023-07-29T07:31:57;99827.69;;;27.46;44.29
9523;BME280;63165;43.016;25.784;2023-07-29T07:34:24;99835.75;;;27.65;43.81
9523;BME280;63165;43.016;25.784;2023-07-29T07:36:51;99831.06;;;27.77;42.86
9523;BME280;63165;43.016;25.784;2023-07-29T07:39:19;99835.91;;;27.83;42.07
9523;BME280;63165;43.016;25.784;2023-07-29T07:41:47;99831.38;;;27.94;41.04
9523;BME280;63165;43.016;25.784;2023-07-29T07:44:15;99835.06;;;28.02;40.85
9523;BME280;63165;43.016;25.784;2023-07-29T07:46:43;99823.00;;;28.16;41.68
9523;BME280;63165;43.016;25.784;2023-07-29T07:49:10;99781.41;;;28.11;41.49
9523;BME280;63165;43.016;25.784;2023-07-29T07:51:38;99818.38;;;28.56;40.83
9523;BME280;63165;43.016;25.784;2023-07-29T07:54:05;99807.69;;;28.74;41.25
9523;BME280;63165;43.016;25.784;2023-07-29T07:56:32;99814.97;;;28.91;39.12
9523;BME280;63165;43.016;25.784;2023-07-29T07:59:01;99810.81;;;29.07;39.73
9523;BME280;63165;43.016;25.784;2023-07-29T08:01:34;99811.13;;;29.21;39.90
9523;BME280;63165;43.016;25.784;2023-07-29T08:04:01;99807.38;;;29.32;39.79
9523;BME280;63165;43.016;25.784;2023-07-29T08:06:28;99812.94;;;29.49;38.37
9523;BME280;63165;43.016;25.784;2023-07-29T08:08:55;99814.09;;;29.64;37.49
9523;BME280;63165;43.016;25.784;2023-07-29T08:11:23;99804.16;;;29.83;36.64
9523;BME280;63165;43.016;25.784;2023-07-29T08:13:50;99804.16;;;30.00;36.84
9523;BME280;63165;43.016;25.784;2023-07-29T08:16:18;99816.22;;;30.14;36.05
9523;BME280;63165;43.016;25.784;2023-07-29T08:18:46;99790.59;;;30.36;35.66
9523;BME280;63165;43.016;25.784;2023-07-29T08:21:13;99800.31;;;30.55;34.59
9523;BME280;63165;43.016;25.784;2023-07-29T08:23:40;99801.38;;;30.71;32.67
9523;BME280;63165;43.016;25.784;2023-07-29T08:26:08;99780.81;;;30.78;33.49
9523;BME280;63165;43.016;25.784;2023-07-29T08:28:36;99780.69;;;30.88;30.01
9523;BME280;63165;43.016;25.784;2023-07-29T08:31:04;99793.28;;;31.05;30.69
9523;BME280;63165;43.016;25.784;2023-07-29T08:33:33;99794.13;;;31.14;28.51
9523;BME280;63165;43.016;25.784;2023-07-29T08:36:00;99785.34;;;31.12;29.00
9523;BME280;63165;43.016;25.784;2023-07-29T08:38:27;99785.91;;;31.24;29.45
9523;BME280;63165;43.016;25.784;2023-07-29T08:40:59;99781.34;;;31.32;30.60
9523;BME280;63165;43.016;25.784;2023-07-29T08:43:32;99786.97;;;31.47;29.69
9523;BME280;63165;43.016;25.784;2023-07-29T08:46:00;99783.09;;;31.58;30.59
9523;BME280;63165;43.016;25.784;2023-07-29T08:48:39;99777.84;;;31.73;30.54
9523;BME280;63165;43.016;25.784;2023-07-29T08:51:08;99768.03;;;31.88;30.58
9523;BME280;63165;43.016;25.784;2023-07-29T08:53:39;99773.78;;;31.93;29.37
9523;BME280;63165;43.016;25.784;2023-07-29T08:56:06;99764.28;;;31.98;30.52
9523;BME280;63165;43.016;25.784;2023-07-29T08:58:34;99773.13;;;32.08;30.82
9523;BME280;63165;43.016;25.784;2023-07-29T09:01:02;99768.00;;;32.21;30.61
9523;BME280;63165;43.016;25.784;2023-07-29T09:03:29;99771.72;;;32.28;30.46
9523;BME280;63165;43.016;25.784;2023-07-29T09:05:58;99766.09;;;32.38;29.12
9523;BME280;63165;43.016;25.784;2023-07-29T09:08:26;99767.97;;;32.38;30.10
9523;BME280;63165;43.016;25.784;2023-07-29T09:10:53;99766.94;;;32.39;30.81
9523;BME280;63165;43.016;25.784;2023-07-29T09:13:21;99727.38;;;32.29;31.11
9523;BME280;63165;43.016;25.784;2023-07-29T09:15:48;99760.09;;;32.67;31.51
9523;BME280;63165;43.016;25.784;2023-07-29T09:18:16;99737.09;;;32.63;31.59
9523;BME280;63165;43.016;25.784;2023-07-29T09:20:46;99764.75;;;32.82;30.08
9523;BME280;63165;43.016;25.784;2023-07-29T09:23:14;99774.88;;;32.88;29.27
9523;BME280;63165;43.016;25.784;2023-07-29T09:25:42;99766.16;;;32.78;29.05
9523;BME280;63165;43.016;25.784;2023-07-29T09:28:10;99765.09;;;32.79;29.56
9523;BME280;63165;43.016;25.784;2023-07-29T09:30:38;99763.75;;;32.83;29.15
9523;BME280;63165;43.016;25.784;2023-07-29T09:33:06;99761.66;;;32.93;28.68
9523;BME280;63165;43.016;25.784;2023-07-29T09:35:35;99741.34;;;32.89;28.27
9523;BME280;63165;43.016;25.784;2023-07-29T09:38:03;99761.63;;;33.01;29.93
9523;BME280;63165;43.016;25.784;2023-07-29T09:40:35;99737.03;;;33.03;30.03
9523;BME280;63165;43.016;25.784;2023-07-29T09:43:04;99761.53;;;33.18;29.35
9523;BME280;63165;43.016;25.784;2023-07-29T09:45:33;99753.19;;;33.28;28.75
9523;BME280;63165;43.016;25.784;2023-07-29T09:48:01;99750.28;;;33.29;28.62
9523;BME280;63165;43.016;25.784;2023-07-29T09:50:30;99750.16;;;33.45;28.41
9523;BME280;63165;43.016;25.784;2023-07-29T09:52:57;99743.94;;;33.60;28.78
9523;BME280;63165;43.016;25.784;2023-07-29T09:55:25;99720.94;;;33.56;28.21
9523;BME280;63165;43.016;25.784;2023-07-29T09:57:56;99746.63;;;33.83;27.96
9523;BME280;63165;43.016;25.784;2023-07-29T10:00:26;99755.91;;;33.89;28.47
9523;BME280;63165;43.016;25.784;2023-07-29T10:02:54;99749.56;;;33.96;28.17
9523;BME280;63165;43.016;25.784;2023-07-29T10:05:22;99745.44;;;34.00;28.67
9523;BME280;63165;43.016;25.784;2023-07-29T10:07:50;99743.19;;;34.04;28.16
9523;BME280;63165;43.016;25.784;2023-07-29T10:10:17;99736.38;;;33.93;27.33
9523;BME280;63165;43.016;25.784;2023-07-29T10:12:45;99743.66;;;33.93;27.83
9523;BME280;63165;43.016;25.784;2023-07-29T10:15:14;99735.91;;;34.04;28.10
9523;BME280;63165;43.016;25.784;2023-07-29T10:17:41;99734.81;;;34.14;27.66
9523;BME280;63165;43.016;25.784;2023-07-29T10:20:09;99735.38;;;34.24;26.75
9523;BME280;63165;43.016;25.784;2023-07-29T10:22:39;99727.06;;;34.26;26.58
9523;BME280;63165;43.016;25.784;2023-07-29T10:25:09;99730.88;;;34.31;27.58
9523;BME280;63165;43.016;25.784;2023-07-29T10:27:42;99731.06;;;34.30;27.07
9523;BME280;63165;43.016;25.784;2023-07-29T10:30:14;99724.13;;;34.12;27.45
9523;BME280;63165;43.016;25.784;2023-07-29T10:32:45;99727.66;;;34.13;27.48
9523;BME280;63165;43.016;25.784;2023-07-29T10:35:13;99715.72;;;34.22;27.30
9523;BME280;63165;43.016;25.784;2023-07-29T10:37:41;99718.78;;;34.34;27.19
9523;BME280;63165;43.016;25.784;2023-07-29T10:40:09;99716.19;;;34.40;27.17
9523;BME280;63165;43.016;25.784;2023-07-29T10:42:37;99723.28;;;34.41;26.78
9523;BME280;63165;43.016;25.784;2023-07-29T10:45:20;99708.50;;;34.44;26.46
9523;BME280;63165;43.016;25.784;2023-07-29T10:47:48;99706.31;;;34.54;27.48
9523;BME280;63165;43.016;25.784;2023-07-29T10:50:18;99714.19;;;34.64;28.04
9523;BME280;63165;43.016;25.784;2023-07-29T10:52:49;99723.34;;;34.63;26.77
9523;BME280;63165;43.016;25.784;2023-07-29T10:55:34;99710.72;;;34.55;27.59
9523;BME280;63165;43.016;25.784;2023-07-29T10:58:12;99707.88;;;34.64;26.82
9523;BME280;63165;43.016;25.784;2023-07-29T11:00:42;99701.63;;;34.78;27.59
9523;BME280;63165;43.016;25.784;2023-07-29T11:03:11;99712.22;;;34.73;26.61
9523;BME280;63165;43.016;25.784;2023-07-29T11:05:48;99700.38;;;34.80;26.55
9523;BME280;63165;43.016;25.784;2023-07-29T11:08:28;99701.88;;;34.83;26.34
9523;BME280;63165;43.016;25.784;2023-07-29T11:11:04;99701.13;;;34.89;27.28
9523;BME280;63165;43.016;25.784;2023-07-29T11:13:32;99701.50;;;34.86;27.19
9523;BME280;63165;43.016;25.784;2023-07-29T11:16:01;99702.88;;;34.97;26.45
9523;BME280;63165;43.016;25.784;2023-07-29T11:18:30;99704.56;;;34.98;27.64
9523;BME280;63165;43.016;25.784;2023-07-29T11:20:59;99699.44;;;35.10;27.03
9523;BME280;63165;43.016;25.784;2023-07-29T11:23:31;99691.00;;;35.19;27.41
9523;BME280;63165;43.016;25.784;2023-07-29T11:25:59;99687.69;;;35.24;26.39
9523;BME280;63165;43.016;25.784;2023-07-29T11:28:27;99653.56;;;35.00;26.24
9523;BME280;63165;43.016;25.784;2023-07-29T11:30:55;99649.03;;;35.07;26.52
9523;BME280;63165;43.016;25.784;2023-07-29T11:33:25;99677.06;;;35.29;26.83
9523;BME280;63165;43.016;25.784;2023-07-29T11:35:53;99651.88;;;35.21;26.42
9523;BME280;63165;43.016;25.784;2023-07-29T11:38:21;99670.44;;;35.38;26.33
9523;BME280;63165;43.016;25.784;2023-07-29T11:40:57;99660.06;;;35.49;26.78
9523;BME280;63165;43.016;25.784;2023-07-29T11:43:25;99635.13;;;35.45;26.21
9523;BME280;63165;43.016;25.784;2023-07-29T11:45:52;99655.91;;;35.53;25.89
9523;BME280;63165;43.016;25.784;2023-07-29T11:48:28;99653.19;;;35.53;26.20
9523;BME280;63165;43.016;25.784;2023-07-29T11:50:55;99657.44;;;35.62;26.40
9523;BME280;63165;43.016;25.784;2023-07-29T11:53:22;99663.34;;;35.66;26.40
9523;BME280;63165;43.016;25.784;2023-07-29T11:55:52;99657.75;;;35.74;26.56
9523;BME280;63165;43.016;25.784;2023-07-29T11:58:20;99671.97;;;35.69;26.28
9523;BME280;63165;43.016;25.784;2023-07-29T12:00:48;99617.13;;;35.44;26.22
9523;BME280;63165;43.016;25.784;2023-07-29T12:03:16;99635.06;;;35.38;26.63
9523;BME280;63165;43.016;25.784;2023-07-29T12:05:46;99651.88;;;35.70;25.61
9523;BME280;63165;43.016;25.784;2023-07-29T12:08:13;99665.97;;;35.81;25.43
9523;BME280;63165;43.016;25.784;2023-07-29T12:10:41;99650.16;;;35.98;26.31
9523;BME280;63165;43.016;25.784;2023-07-29T12:13:10;99647.03;;;36.01;26.19
9523;BME280;63165;43.016;25.784;2023-07-29T12:15:38;99609.19;;;35.78;25.75
9523;BME280;63165;43.016;25.784;2023-07-29T12:18:06;99653.53;;;36.00;26.12
9523;BME280;63165;43.016;25.784;2023-07-29T12:20:36;99599.44;;;35.90;25.87
9523;BME280;63165;43.016;25.784;2023-07-29T12:23:07;99637.31;;;36.20;25.42
9523;BME280;63165;43.016;25.784;2023-07-29T12:25:35;99645.25;;;36.21;25.85
9523;BME280;63165;43.016;25.784;2023-07-29T12:28:03;99647.63;;;36.31;25.58
9523;BME280;63165;43.016;25.784;2023-07-29T12:30:30;99647.25;;;36.41;25.14
9523;BME280;63165;43.016;25.784;2023-07-29T12:32:58;99648.69;;;36.43;24.91
9523;BME280;63165;43.016;25.784;2023-07-29T12:35:34;99643.06;;;36.45;25.46
9523;BME280;63165;43.016;25.784;2023-07-29T12:38:01;99639.47;;;36.38;25.45
9523;BME280;63165;43.016;25.784;2023-07-29T12:40:30;99648.03;;;36.28;24.85
9523;BME280;63165;43.016;25.784;2023-07-29T12:42:57;99615.06;;;36.16;25.22
9523;BME280;63165;43.016;25.784;2023-07-29T12:45:25;99609.59;;;36.16;26.02
9523;BME280;63165;43.016;25.784;2023-07-29T12:47:54;99643.09;;;36.51;25.88
9523;BME280;63165;43.016;25.784;2023-07-29T12:50:21;99636.38;;;36.54;25.93
9523;BME280;63165;43.016;25.784;2023-07-29T12:52:48;99632.78;;;36.40;24.63
9523;BME280;63165;43.016;25.784;2023-07-29T12:55:16;99633.88;;;36.59;25.49
9523;BME280;63165;43.016;25.784;2023-07-29T12:57:44;99635.97;;;36.64;24.57
9523;BME280;63165;43.016;25.784;2023-07-29T13:00:12;99630.94;;;36.54;24.21
9523;BME280;63165;43.016;25.784;2023-07-29T13:02:39;99620.00;;;36.47;24.59
9523;BME280;63165;43.016;25.784;2023-07-29T13:05:09;99631.13;;;36.46;24.89